Baltimore, Maryland
Traffic Map
Current Weather Conditions
Baltimore, Maryland
Overcast Light Rain
Overcast
21°
Feels Like: 21°
Wind Chill: 21° Ceiling: 6000
Heat Index: 21° Visibility: 4mi
Dew Point: 17° Wind: 0mph
Humidity: 81% Direction: ° ()
Pressure: 29.91in Gusts: 0mph
Raw Report DataKBWI 021154Z 00000KT 4SM -RA FEW044 BKN060 OVC095 21/17 A2991 RMK AO2 RAB13 SLP126 P0002 60002 70002 T02060172 10211 20183 53012
Traffic Incident Summary
Active as of:
Severity:
Category:
InformationThere was an issue retrieving the traffic information for this location. Please try a different location or try again shortly.
Advertisements
Track Severe Weather on mobile